createdAt,value
2022-11-11T00:21:59.991Z,30.50
2022-11-11T00:52:30.111Z,18.17
2022-11-11T01:23:02.197Z,26.80
2022-11-11T01:53:29.709Z,21.70
2022-11-11T02:24:06.896Z,16.50
2022-11-11T02:54:33.891Z,14.97
2022-11-11T03:25:22.693Z,11.73
2022-11-11T03:55:53.589Z,13.40
2022-11-11T04:26:20.449Z,12.60
2022-11-11T04:56:58.160Z,19.40
2022-11-11T05:27:25.355Z,14.63
2022-11-11T05:57:52.238Z,16.47
2022-11-11T06:28:19.837Z,14.97
2022-11-11T06:58:46.992Z,31.00
2022-11-11T07:29:15.397Z,48.80
2022-11-11T07:59:43.045Z,27.23
2022-11-11T08:30:20.888Z,11.98
2022-11-11T09:00:48.965Z,6.90
2022-11-11T10:02:04.913Z,37.28
2022-11-11T10:32:37.707Z,13.55
2022-11-11T11:03:18.388Z,12.77
2022-11-11T11:33:59.927Z,11.18
2022-11-11T12:04:47.527Z,8.23
2022-11-11T12:35:45.274Z,9.88
2022-11-11T13:06:28.974Z,10.20
2022-11-11T13:37:00.111Z,12.37
2022-11-11T14:07:56.552Z,10.17
2022-11-11T14:38:48.096Z,23.27
2022-11-11T15:09:38.141Z,16.70
2022-11-11T15:40:06.549Z,21.87
2022-11-11T16:10:36.279Z,42.40
2022-11-11T16:41:03.210Z,61.90
2022-11-11T17:11:48.611Z,62.00
2022-11-11T17:42:18.458Z,45.90
2022-11-11T18:12:46.278Z,39.83
2022-11-11T18:43:12.917Z,44.37
2022-11-11T19:13:40.710Z,33.67
2022-11-11T19:44:13.308Z,35.77
2022-11-11T20:14:40.231Z,31.50
2022-11-11T20:45:12.532Z,37.37
2022-11-11T21:15:39.995Z,29.27
2022-11-11T21:46:09.441Z,34.80
2022-11-11T22:16:38.411Z,29.03
2022-11-11T22:47:05.724Z,32.70
2022-11-11T23:17:32.864Z,29.90
2022-11-11T23:47:59.721Z,26.23
